sensor_id;sensor_type;location;lat;lon;timestamp;P1;durP1;ratioP1;P2;durP2;ratioP2
6300;SDS011;3183;51.010;6.898;2022-07-25T00:01:00;8.70;;;6.30;;
6300;SDS011;3183;51.010;6.898;2022-07-25T00:03:29;10.07;;;7.40;;
6300;SDS011;3183;51.010;6.898;2022-07-25T00:05:56;11.03;;;7.40;;
6300;SDS011;3183;51.010;6.898;2022-07-25T00:08:23;9.07;;;7.33;;
6300;SDS011;3183;51.010;6.898;2022-07-25T00:10:50;7.33;;;5.73;;
6300;SDS011;3183;51.010;6.898;2022-07-25T00:13:17;12.27;;;7.13;;
6300;SDS011;3183;51.010;6.898;2022-07-25T00:15:45;10.63;;;7.60;;
6300;SDS011;3183;51.010;6.898;2022-07-25T00:18:12;15.40;;;7.47;;
6300;SDS011;3183;51.010;6.898;2022-07-25T00:20:40;11.63;;;7.30;;
6300;SDS011;3183;51.010;6.898;2022-07-25T00:23:07;7.80;;;6.43;;
6300;SDS011;3183;51.010;6.898;2022-07-25T00:25:34;8.73;;;6.53;;
6300;SDS011;3183;51.010;6.898;2022-07-25T00:28:02;9.33;;;6.47;;
6300;SDS011;3183;51.010;6.898;2022-07-25T00:30:29;7.70;;;6.23;;
6300;SDS011;3183;51.010;6.898;2022-07-25T00:32:56;8.63;;;6.13;;
6300;SDS011;3183;51.010;6.898;2022-07-25T00:35:23;9.73;;;7.17;;
6300;SDS011;3183;51.010;6.898;2022-07-25T00:37:52;9.20;;;6.80;;
6300;SDS011;3183;51.010;6.898;2022-07-25T00:40:19;7.63;;;5.83;;
6300;SDS011;3183;51.010;6.898;2022-07-25T00:42:46;9.90;;;6.87;;
6300;SDS011;3183;51.010;6.898;2022-07-25T00:45:13;11.23;;;7.30;;
6300;SDS011;3183;51.010;6.898;2022-07-25T00:47:41;7.33;;;5.73;;
6300;SDS011;3183;51.010;6.898;2022-07-25T00:50:08;8.53;;;6.53;;
6300;SDS011;3183;51.010;6.898;2022-07-25T00:52:35;8.80;;;6.20;;
6300;SDS011;3183;51.010;6.898;2022-07-25T00:55:04;15.53;;;6.17;;
6300;SDS011;3183;51.010;6.898;2022-07-25T00:57:32;8.00;;;6.20;;
6300;SDS011;3183;51.010;6.898;2022-07-25T00:59:59;10.70;;;6.30;;
6300;SDS011;3183;51.010;6.898;2022-07-25T01:02:27;8.40;;;6.13;;
6300;SDS011;3183;51.010;6.898;2022-07-25T01:04:54;8.33;;;6.70;;
6300;SDS011;3183;51.010;6.898;2022-07-25T01:07:22;8.50;;;5.90;;
6300;SDS011;3183;51.010;6.898;2022-07-25T01:09:50;8.83;;;6.50;;
6300;SDS011;3183;51.010;6.898;2022-07-25T01:12:19;8.23;;;6.60;;
6300;SDS011;3183;51.010;6.898;2022-07-25T01:14:46;14.07;;;6.50;;
6300;SDS011;3183;51.010;6.898;2022-07-25T01:17:13;10.30;;;6.97;;
6300;SDS011;3183;51.010;6.898;2022-07-25T01:19:40;7.10;;;6.37;;
6300;SDS011;3183;51.010;6.898;2022-07-25T01:22:09;10.53;;;7.10;;
6300;SDS011;3183;51.010;6.898;2022-07-25T01:24:36;11.60;;;6.60;;
6300;SDS011;3183;51.010;6.898;2022-07-25T01:27:04;8.73;;;6.80;;
6300;SDS011;3183;51.010;6.898;2022-07-25T01:29:31;8.00;;;6.47;;
6300;SDS011;3183;51.010;6.898;2022-07-25T01:31:59;8.03;;;6.60;;
6300;SDS011;3183;51.010;6.898;2022-07-25T01:34:26;11.53;;;6.60;;
6300;SDS011;3183;51.010;6.898;2022-07-25T01:36:53;8.73;;;6.50;;
6300;SDS011;3183;51.010;6.898;2022-07-25T01:39:21;10.10;;;7.23;;
6300;SDS011;3183;51.010;6.898;2022-07-25T01:41:48;11.30;;;7.20;;
6300;SDS011;3183;51.010;6.898;2022-07-25T01:44:16;8.83;;;6.57;;
6300;SDS011;3183;51.010;6.898;2022-07-25T01:46:43;8.43;;;6.57;;
6300;SDS011;3183;51.010;6.898;2022-07-25T01:49:10;9.97;;;7.07;;
6300;SDS011;3183;51.010;6.898;2022-07-25T01:51:37;9.00;;;5.77;;
6300;SDS011;3183;51.010;6.898;2022-07-25T01:54:04;10.27;;;6.60;;
6300;SDS011;3183;51.010;6.898;2022-07-25T01:56:33;7.27;;;5.90;;
6300;SDS011;3183;51.010;6.898;2022-07-25T01:59:00;16.70;;;7.10;;
6300;SDS011;3183;51.010;6.898;2022-07-25T02:01:27;11.30;;;7.17;;
6300;SDS011;3183;51.010;6.898;2022-07-25T02:03:54;9.40;;;6.77;;
6300;SDS011;3183;51.010;6.898;2022-07-25T02:06:21;11.13;;;6.67;;
6300;SDS011;3183;51.010;6.898;2022-07-25T02:08:48;12.57;;;7.23;;
6300;SDS011;3183;51.010;6.898;2022-07-25T02:11:16;8.67;;;6.77;;
6300;SDS011;3183;51.010;6.898;2022-07-25T02:13:44;11.40;;;6.20;;
6300;SDS011;3183;51.010;6.898;2022-07-25T02:16:11;7.50;;;6.47;;
6300;SDS011;3183;51.010;6.898;2022-07-25T02:18:39;10.73;;;7.13;;
6300;SDS011;3183;51.010;6.898;2022-07-25T02:21:06;9.97;;;6.80;;
6300;SDS011;3183;51.010;6.898;2022-07-25T02:23:34;11.17;;;6.70;;
6300;SDS011;3183;51.010;6.898;2022-07-25T02:26:02;9.50;;;7.30;;
6300;SDS011;3183;51.010;6.898;2022-07-25T02:28:29;9.93;;;7.30;;
6300;SDS011;3183;51.010;6.898;2022-07-25T02:30:58;10.40;;;6.60;;
6300;SDS011;3183;51.010;6.898;2022-07-25T02:33:25;10.57;;;6.67;;
6300;SDS011;3183;51.010;6.898;2022-07-25T02:35:52;8.13;;;6.13;;
6300;SDS011;3183;51.010;6.898;2022-07-25T02:38:20;10.80;;;7.77;;
6300;SDS011;3183;51.010;6.898;2022-07-25T02:40:47;9.37;;;6.70;;
6300;SDS011;3183;51.010;6.898;2022-07-25T02:43:15;12.23;;;6.87;;
6300;SDS011;3183;51.010;6.898;2022-07-25T02:45:42;13.50;;;6.93;;
6300;SDS011;3183;51.010;6.898;2022-07-25T02:48:11;9.73;;;6.87;;
6300;SDS011;3183;51.010;6.898;2022-07-25T02:50:39;9.83;;;6.87;;
6300;SDS011;3183;51.010;6.898;2022-07-25T02:53:06;8.67;;;6.70;;
6300;SDS011;3183;51.010;6.898;2022-07-25T02:55:33;10.07;;;6.83;;
6300;SDS011;3183;51.010;6.898;2022-07-25T02:58:00;11.23;;;7.93;;
6300;SDS011;3183;51.010;6.898;2022-07-25T03:00:34;8.73;;;7.23;;
6300;SDS011;3183;51.010;6.898;2022-07-25T03:03:01;10.00;;;7.57;;
6300;SDS011;3183;51.010;6.898;2022-07-25T03:05:30;8.63;;;7.13;;
6300;SDS011;3183;51.010;6.898;2022-07-25T03:07:57;12.20;;;7.60;;
6300;SDS011;3183;51.010;6.898;2022-07-25T03:10:24;8.53;;;7.07;;
6300;SDS011;3183;51.010;6.898;2022-07-25T03:12:51;10.83;;;7.10;;
6300;SDS011;3183;51.010;6.898;2022-07-25T03:15:18;9.70;;;7.00;;
6300;SDS011;3183;51.010;6.898;2022-07-25T03:17:46;12.53;;;7.17;;
6300;SDS011;3183;51.010;6.898;2022-07-25T03:20:13;13.67;;;8.03;;
6300;SDS011;3183;51.010;6.898;2022-07-25T03:22:41;9.20;;;6.60;;
6300;SDS011;3183;51.010;6.898;2022-07-25T03:25:08;12.30;;;7.07;;
6300;SDS011;3183;51.010;6.898;2022-07-25T03:27:36;10.83;;;7.03;;
6300;SDS011;3183;51.010;6.898;2022-07-25T03:30:03;10.07;;;6.77;;
6300;SDS011;3183;51.010;6.898;2022-07-25T03:32:30;11.07;;;6.87;;
6300;SDS011;3183;51.010;6.898;2022-07-25T03:34:58;10.70;;;6.17;;
6300;SDS011;3183;51.010;6.898;2022-07-25T03:37:25;9.33;;;7.27;;
6300;SDS011;3183;51.010;6.898;2022-07-25T03:39:54;11.23;;;7.17;;
6300;SDS011;3183;51.010;6.898;2022-07-25T03:42:21;9.80;;;6.83;;
6300;SDS011;3183;51.010;6.898;2022-07-25T03:44:48;9.80;;;7.00;;
6300;SDS011;3183;51.010;6.898;2022-07-25T03:47:16;11.33;;;6.87;;
6300;SDS011;3183;51.010;6.898;2022-07-25T03:49:43;10.10;;;6.20;;
6300;SDS011;3183;51.010;6.898;2022-07-25T03:52:10;9.80;;;7.00;;
6300;SDS011;3183;51.010;6.898;2022-07-25T03:54:37;11.87;;;6.80;;
6300;SDS011;3183;51.010;6.898;2022-07-25T03:57:05;11.13;;;7.57;;
6300;SDS011;3183;51.010;6.898;2022-07-25T03:59:33;12.10;;;7.33;;
6300;SDS011;3183;51.010;6.898;2022-07-25T04:02:00;9.97;;;7.40;;
6300;SDS011;3183;51.010;6.898;2022-07-25T04:04:27;10.20;;;6.70;;
6300;SDS011;3183;51.010;6.898;2022-07-25T04:06:54;7.10;;;6.13;;
6300;SDS011;3183;51.010;6.898;2022-07-25T04:09:21;10.60;;;6.97;;
6300;SDS011;3183;51.010;6.898;2022-07-25T04:11:48;7.80;;;6.80;;
6300;SDS011;3183;51.010;6.898;2022-07-25T04:14:17;9.80;;;7.47;;
6300;SDS011;3183;51.010;6.898;2022-07-25T04:16:44;8.77;;;6.90;;
6300;SDS011;3183;51.010;6.898;2022-07-25T04:19:11;10.60;;;6.90;;
6300;SDS011;3183;51.010;6.898;2022-07-25T04:21:38;8.50;;;6.80;;
6300;SDS011;3183;51.010;6.898;2022-07-25T04:24:06;11.40;;;7.30;;
6300;SDS011;3183;51.010;6.898;2022-07-25T04:26:33;8.90;;;6.97;;
6300;SDS011;3183;51.010;6.898;2022-07-25T04:29:00;7.90;;;6.77;;
6300;SDS011;3183;51.010;6.898;2022-07-25T04:31:29;9.33;;;7.10;;
6300;SDS011;3183;51.010;6.898;2022-07-25T04:33:56;10.80;;;6.80;;
6300;SDS011;3183;51.010;6.898;2022-07-25T04:36:23;13.93;;;5.87;;
6300;SDS011;3183;51.010;6.898;2022-07-25T04:38:52;13.70;;;7.00;;
6300;SDS011;3183;51.010;6.898;2022-07-25T04:41:19;8.63;;;6.97;;
6300;SDS011;3183;51.010;6.898;2022-07-25T04:43:46;15.80;;;6.40;;
6300;SDS011;3183;51.010;6.898;2022-07-25T04:46:16;11.43;;;7.27;;
6300;SDS011;3183;51.010;6.898;2022-07-25T04:48:45;9.50;;;7.50;;
6300;SDS011;3183;51.010;6.898;2022-07-25T04:51:12;7.00;;;5.87;;
6300;SDS011;3183;51.010;6.898;2022-07-25T04:53:39;8.67;;;6.37;;
6300;SDS011;3183;51.010;6.898;2022-07-25T04:56:06;10.70;;;7.17;;
6300;SDS011;3183;51.010;6.898;2022-07-25T04:58:34;7.13;;;5.80;;
6300;SDS011;3183;51.010;6.898;2022-07-25T05:01:01;7.00;;;5.90;;
6300;SDS011;3183;51.010;6.898;2022-07-25T05:03:28;7.40;;;5.97;;
6300;SDS011;3183;51.010;6.898;2022-07-25T05:05:57;9.23;;;6.23;;
6300;SDS011;3183;51.010;6.898;2022-07-25T05:08:24;18.07;;;8.40;;
6300;SDS011;3183;51.010;6.898;2022-07-25T05:10:51;7.17;;;6.10;;
6300;SDS011;3183;51.010;6.898;2022-07-25T05:13:18;9.38;;;7.05;;
6300;SDS011;3183;51.010;6.898;2022-07-25T05:15:46;10.33;;;6.10;;
6300;SDS011;3183;51.010;6.898;2022-07-25T05:18:13;8.67;;;6.30;;
6300;SDS011;3183;51.010;6.898;2022-07-25T05:20:40;13.23;;;6.60;;
6300;SDS011;3183;51.010;6.898;2022-07-25T05:23:09;8.53;;;5.80;;
6300;SDS011;3183;51.010;6.898;2022-07-25T05:25:36;8.37;;;6.27;;
6300;SDS011;3183;51.010;6.898;2022-07-25T05:28:03;10.33;;;6.87;;
6300;SDS011;3183;51.010;6.898;2022-07-25T05:30:30;8.90;;;6.87;;
6300;SDS011;3183;51.010;6.898;2022-07-25T05:32:58;10.53;;;6.53;;
6300;SDS011;3183;51.010;6.898;2022-07-25T05:35:26;10.40;;;6.07;;
6300;SDS011;3183;51.010;6.898;2022-07-25T05:37:53;7.57;;;6.17;;
6300;SDS011;3183;51.010;6.898;2022-07-25T05:40:22;8.40;;;5.73;;
6300;SDS011;3183;51.010;6.898;2022-07-25T05:42:49;7.70;;;6.20;;
6300;SDS011;3183;51.010;6.898;2022-07-25T05:45:16;9.33;;;6.47;;
6300;SDS011;3183;51.010;6.898;2022-07-25T05:47:43;9.03;;;6.67;;
6300;SDS011;3183;51.010;6.898;2022-07-25T05:50:10;8.30;;;5.90;;
6300;SDS011;3183;51.010;6.898;2022-07-25T05:52:37;7.13;;;6.07;;
6300;SDS011;3183;51.010;6.898;2022-07-25T05:55:05;16.33;;;6.50;;
6300;SDS011;3183;51.010;6.898;2022-07-25T05:57:34;7.87;;;6.00;;
6300;SDS011;3183;51.010;6.898;2022-07-25T06:00:03;7.90;;;5.80;;
6300;SDS011;3183;51.010;6.898;2022-07-25T06:02:30;8.00;;;6.33;;
6300;SDS011;3183;51.010;6.898;2022-07-25T06:04:58;11.23;;;6.43;;
6300;SDS011;3183;51.010;6.898;2022-07-25T06:07:25;7.63;;;6.40;;
6300;SDS011;3183;51.010;6.898;2022-07-25T06:09:52;9.90;;;6.57;;
6300;SDS011;3183;51.010;6.898;2022-07-25T06:12:19;9.47;;;6.80;;
6300;SDS011;3183;51.010;6.898;2022-07-25T06:14:48;8.50;;;5.97;;
6300;SDS011;3183;51.010;6.898;2022-07-25T06:17:15;9.30;;;6.10;;
6300;SDS011;3183;51.010;6.898;2022-07-25T06:19:42;25.40;;;6.90;;
6300;SDS011;3183;51.010;6.898;2022-07-25T06:22:09;11.00;;;6.57;;
6300;SDS011;3183;51.010;6.898;2022-07-25T06:24:37;11.97;;;6.90;;
6300;SDS011;3183;51.010;6.898;2022-07-25T06:27:05;8.07;;;5.40;;
6300;SDS011;3183;51.010;6.898;2022-07-25T06:29:33;8.03;;;6.50;;
6300;SDS011;3183;51.010;6.898;2022-07-25T06:32:01;8.90;;;6.60;;
6300;SDS011;3183;51.010;6.898;2022-07-25T06:34:29;8.80;;;6.20;;
6300;SDS011;3183;51.010;6.898;2022-07-25T06:36:56;13.17;;;6.00;;
6300;SDS011;3183;51.010;6.898;2022-07-25T06:39:23;6.00;;;5.37;;
6300;SDS011;3183;51.010;6.898;2022-07-25T06:41:52;6.90;;;6.17;;
6300;SDS011;3183;51.010;6.898;2022-07-25T06:44:19;9.40;;;5.83;;
6300;SDS011;3183;51.010;6.898;2022-07-25T06:46:46;6.73;;;6.03;;
6300;SDS011;3183;51.010;6.898;2022-07-25T06:49:15;14.33;;;6.67;;
6300;SDS011;3183;51.010;6.898;2022-07-25T06:51:42;7.30;;;6.43;;
6300;SDS011;3183;51.010;6.898;2022-07-25T06:54:09;13.30;;;6.27;;
6300;SDS011;3183;51.010;6.898;2022-07-25T06:56:37;8.40;;;6.47;;
6300;SDS011;3183;51.010;6.898;2022-07-25T06:59:04;7.47;;;6.77;;
6300;SDS011;3183;51.010;6.898;2022-07-25T07:01:32;9.67;;;7.00;;
6300;SDS011;3183;51.010;6.898;2022-07-25T07:03:59;8.03;;;6.00;;
6300;SDS011;3183;51.010;6.898;2022-07-25T07:06:27;8.10;;;6.33;;
6300;SDS011;3183;51.010;6.898;2022-07-25T07:08:55;8.47;;;5.60;;
6300;SDS011;3183;51.010;6.898;2022-07-25T07:11:22;7.17;;;6.20;;
6300;SDS011;3183;51.010;6.898;2022-07-25T07:13:50;10.17;;;6.00;;
6300;SDS011;3183;51.010;6.898;2022-07-25T07:16:17;7.20;;;6.50;;
6300;SDS011;3183;51.010;6.898;2022-07-25T07:18:44;17.13;;;6.80;;
6300;SDS011;3183;51.010;6.898;2022-07-25T07:21:11;9.90;;;6.40;;
6300;SDS011;3183;51.010;6.898;2022-07-25T07:23:40;7.23;;;6.17;;
6300;SDS011;3183;51.010;6.898;2022-07-25T07:26:07;7.07;;;5.80;;
6300;SDS011;3183;51.010;6.898;2022-07-25T07:28:34;9.00;;;5.70;;
6300;SDS011;3183;51.010;6.898;2022-07-25T07:31:01;10.17;;;6.93;;
6300;SDS011;3183;51.010;6.898;2022-07-25T07:33:28;9.40;;;6.33;;
6300;SDS011;3183;51.010;6.898;2022-07-25T07:35:56;7.30;;;5.60;;
6300;SDS011;3183;51.010;6.898;2022-07-25T07:38:24;11.73;;;7.00;;
6300;SDS011;3183;51.010;6.898;2022-07-25T07:40:53;8.50;;;5.90;;
6300;SDS011;3183;51.010;6.898;2022-07-25T07:43:20;10.13;;;6.73;;
6300;SDS011;3183;51.010;6.898;2022-07-25T07:45:47;9.80;;;6.30;;
6300;SDS011;3183;51.010;6.898;2022-07-25T07:48:14;12.47;;;6.77;;
6300;SDS011;3183;51.010;6.898;2022-07-25T07:50:41;11.53;;;6.07;;
6300;SDS011;3183;51.010;6.898;2022-07-25T07:53:08;10.50;;;5.67;;
6300;SDS011;3183;51.010;6.898;2022-07-25T07:55:35;9.50;;;6.10;;
6300;SDS011;3183;51.010;6.898;2022-07-25T07:58:09;8.17;;;6.90;;
6300;SDS011;3183;51.010;6.898;2022-07-25T08:00:39;11.47;;;6.87;;
6300;SDS011;3183;51.010;6.898;2022-07-25T08:03:07;7.57;;;6.37;;
6300;SDS011;3183;51.010;6.898;2022-07-25T08:05:35;12.20;;;6.30;;
6300;SDS011;3183;51.010;6.898;2022-07-25T08:08:03;7.10;;;5.87;;
6300;SDS011;3183;51.010;6.898;2022-07-25T08:10:30;12.90;;;6.10;;
6300;SDS011;3183;51.010;6.898;2022-07-25T08:12:59;11.83;;;6.80;;
6300;SDS011;3183;51.010;6.898;2022-07-25T08:15:27;10.50;;;6.07;;
6300;SDS011;3183;51.010;6.898;2022-07-25T08:17:55;9.33;;;6.43;;
6300;SDS011;3183;51.010;6.898;2022-07-25T08:20:22;11.63;;;6.13;;
6300;SDS011;3183;51.010;6.898;2022-07-25T08:22:49;7.97;;;6.10;;
6300;SDS011;3183;51.010;6.898;2022-07-25T08:25:17;6.97;;;5.77;;
6300;SDS011;3183;51.010;6.898;2022-07-25T08:27:44;8.83;;;5.93;;
6300;SDS011;3183;51.010;6.898;2022-07-25T08:30:12;7.83;;;6.23;;
6300;SDS011;3183;51.010;6.898;2022-07-25T08:32:51;9.37;;;6.60;;
6300;SDS011;3183;51.010;6.898;2022-07-25T08:35:18;7.60;;;6.20;;
6300;SDS011;3183;51.010;6.898;2022-07-25T08:37:45;9.20;;;5.87;;
6300;SDS011;3183;51.010;6.898;2022-07-25T08:40:13;6.50;;;5.50;;
6300;SDS011;3183;51.010;6.898;2022-07-25T08:42:41;6.77;;;5.43;;
6300;SDS011;3183;51.010;6.898;2022-07-25T08:45:08;7.70;;;5.87;;
6300;SDS011;3183;51.010;6.898;2022-07-25T08:47:37;7.33;;;6.07;;
6300;SDS011;3183;51.010;6.898;2022-07-25T08:50:07;8.20;;;5.70;;
6300;SDS011;3183;51.010;6.898;2022-07-25T08:52:35;7.87;;;5.70;;
6300;SDS011;3183;51.010;6.898;2022-07-25T08:55:02;9.67;;;6.60;;
6300;SDS011;3183;51.010;6.898;2022-07-25T08:57:30;8.20;;;5.70;;
6300;SDS011;3183;51.010;6.898;2022-07-25T08:59:57;12.13;;;6.43;;
6300;SDS011;3183;51.010;6.898;2022-07-25T09:02:24;8.97;;;5.37;;
6300;SDS011;3183;51.010;6.898;2022-07-25T09:04:52;11.37;;;5.97;;
6300;SDS011;3183;51.010;6.898;2022-07-25T09:10:12;6.40;;;5.37;;
6300;SDS011;3183;51.010;6.898;2022-07-25T09:12:40;6.90;;;5.57;;
6300;SDS011;3183;51.010;6.898;2022-07-25T09:15:08;7.40;;;5.80;;
6300;SDS011;3183;51.010;6.898;2022-07-25T09:17:35;8.20;;;5.83;;
6300;SDS011;3183;51.010;6.898;2022-07-25T09:20:03;6.00;;;5.23;;
6300;SDS011;3183;51.010;6.898;2022-07-25T09:22:41;8.30;;;6.43;;
6300;SDS011;3183;51.010;6.898;2022-07-25T09:25:19;13.73;;;6.13;;
6300;SDS011;3183;51.010;6.898;2022-07-25T09:27:46;9.50;;;6.10;;
6300;SDS011;3183;51.010;6.898;2022-07-25T09:30:14;8.53;;;6.63;;
6300;SDS011;3183;51.010;6.898;2022-07-25T09:32:41;9.20;;;6.20;;
6300;SDS011;3183;51.010;6.898;2022-07-25T09:35:08;9.70;;;5.63;;
6300;SDS011;3183;51.010;6.898;2022-07-25T09:37:36;8.60;;;5.30;;
6300;SDS011;3183;51.010;6.898;2022-07-25T09:40:10;19.37;;;6.47;;
6300;SDS011;3183;51.010;6.898;2022-07-25T09:42:39;6.60;;;5.80;;
6300;SDS011;3183;51.010;6.898;2022-07-25T09:45:11;14.50;;;6.47;;
6300;SDS011;3183;51.010;6.898;2022-07-25T09:47:48;9.27;;;6.33;;
6300;SDS011;3183;51.010;6.898;2022-07-25T09:50:16;7.67;;;5.50;;
6300;SDS011;3183;51.010;6.898;2022-07-25T09:52:43;9.03;;;5.73;;
6300;SDS011;3183;51.010;6.898;2022-07-25T09:55:11;16.40;;;5.77;;
6300;SDS011;3183;51.010;6.898;2022-07-25T09:57:41;7.53;;;5.90;;
6300;SDS011;3183;51.010;6.898;2022-07-25T10:00:10;15.80;;;6.03;;
6300;SDS011;3183;51.010;6.898;2022-07-25T10:02:46;11.73;;;6.87;;
6300;SDS011;3183;51.010;6.898;2022-07-25T10:05:14;7.53;;;5.63;;
6300;SDS011;3183;51.010;6.898;2022-07-25T10:07:42;12.53;;;6.53;;
6300;SDS011;3183;51.010;6.898;2022-07-25T10:10:18;17.33;;;6.33;;
6300;SDS011;3183;51.010;6.898;2022-07-25T10:12:57;8.03;;;5.90;;
6300;SDS011;3183;51.010;6.898;2022-07-25T10:15:25;9.10;;;6.17;;
6300;SDS011;3183;51.010;6.898;2022-07-25T10:18:00;11.23;;;7.20;;
6300;SDS011;3183;51.010;6.898;2022-07-25T10:20:28;9.23;;;5.90;;
6300;SDS011;3183;51.010;6.898;2022-07-25T10:22:55;17.70;;;6.37;;
6300;SDS011;3183;51.010;6.898;2022-07-25T10:25:22;13.73;;;6.27;;
6300;SDS011;3183;51.010;6.898;2022-07-25T10:27:50;9.70;;;5.70;;
6300;SDS011;3183;51.010;6.898;2022-07-25T10:30:25;6.50;;;5.77;;
6300;SDS011;3183;51.010;6.898;2022-07-25T10:32:56;7.13;;;5.87;;
6300;SDS011;3183;51.010;6.898;2022-07-25T10:35:24;11.40;;;5.77;;
6300;SDS011;3183;51.010;6.898;2022-07-25T10:37:52;6.40;;;5.20;;
6300;SDS011;3183;51.010;6.898;2022-07-25T10:40:26;13.00;;;5.60;;
6300;SDS011;3183;51.010;6.898;2022-07-25T10:43:00;10.93;;;5.40;;
6300;SDS011;3183;51.010;6.898;2022-07-25T10:45:34;10.43;;;5.17;;
6300;SDS011;3183;51.010;6.898;2022-07-25T10:48:05;13.10;;;5.53;;
6300;SDS011;3183;51.010;6.898;2022-07-25T10:50:32;8.30;;;5.83;;
6300;SDS011;3183;51.010;6.898;2022-07-25T10:52:59;7.80;;;4.77;;
6300;SDS011;3183;51.010;6.898;2022-07-25T10:55:31;8.53;;;5.00;;
6300;SDS011;3183;51.010;6.898;2022-07-25T10:58:02;14.10;;;5.27;;
6300;SDS011;3183;51.010;6.898;2022-07-25T11:00:31;6.70;;;4.90;;
6300;SDS011;3183;51.010;6.898;2022-07-25T11:02:59;6.37;;;5.27;;
6300;SDS011;3183;51.010;6.898;2022-07-25T11:05:27;9.07;;;4.47;;
6300;SDS011;3183;51.010;6.898;2022-07-25T11:07:55;8.63;;;4.90;;
6300;SDS011;3183;51.010;6.898;2022-07-25T11:10:25;10.83;;;4.67;;
6300;SDS011;3183;51.010;6.898;2022-07-25T11:12:53;11.60;;;4.70;;
6300;SDS011;3183;51.010;6.898;2022-07-25T11:15:21;10.70;;;5.37;;
6300;SDS011;3183;51.010;6.898;2022-07-25T11:17:49;10.67;;;4.73;;
6300;SDS011;3183;51.010;6.898;2022-07-25T11:20:18;6.70;;;4.80;;
6300;SDS011;3183;51.010;6.898;2022-07-25T11:22:53;8.57;;;5.50;;
6300;SDS011;3183;51.010;6.898;2022-07-25T11:25:21;7.90;;;4.93;;
6300;SDS011;3183;51.010;6.898;2022-07-25T11:27:49;8.70;;;5.00;;
6300;SDS011;3183;51.010;6.898;2022-07-25T11:30:17;7.60;;;4.67;;
6300;SDS011;3183;51.010;6.898;2022-07-25T11:32:45;5.50;;;4.13;;
6300;SDS011;3183;51.010;6.898;2022-07-25T11:35:13;6.90;;;4.70;;
6300;SDS011;3183;51.010;6.898;2022-07-25T11:37:43;8.77;;;4.53;;
6300;SDS011;3183;51.010;6.898;2022-07-25T11:40:13;5.90;;;4.60;;
6300;SDS011;3183;51.010;6.898;2022-07-25T11:42:42;5.77;;;4.00;;
6300;SDS011;3183;51.010;6.898;2022-07-25T11:45:14;5.93;;;3.77;;
6300;SDS011;3183;51.010;6.898;2022-07-25T11:47:42;9.83;;;3.60;;
6300;SDS011;3183;51.010;6.898;2022-07-25T11:50:09;6.63;;;4.20;;
6300;SDS011;3183;51.010;6.898;2022-07-25T11:52:39;5.43;;;4.10;;
6300;SDS011;3183;51.010;6.898;2022-07-25T11:55:09;8.00;;;3.90;;
6300;SDS011;3183;51.010;6.898;2022-07-25T11:57:37;4.97;;;3.60;;
6300;SDS011;3183;51.010;6.898;2022-07-25T12:00:07;5.90;;;4.23;;
6300;SDS011;3183;51.010;6.898;2022-07-25T12:02:35;3.87;;;3.30;;
6300;SDS011;3183;51.010;6.898;2022-07-25T12:05:03;7.23;;;3.80;;
6300;SDS011;3183;51.010;6.898;2022-07-25T12:07:35;6.70;;;3.53;;
6300;SDS011;3183;51.010;6.898;2022-07-25T12:10:02;10.07;;;3.70;;
6300;SDS011;3183;51.010;6.898;2022-07-25T12:12:40;6.47;;;4.13;;
6300;SDS011;3183;51.010;6.898;2022-07-25T12:15:08;7.50;;;4.10;;
6300;SDS011;3183;51.010;6.898;2022-07-25T12:17:35;8.10;;;4.30;;
6300;SDS011;3183;51.010;6.898;2022-07-25T12:20:03;12.27;;;4.50;;
6300;SDS011;3183;51.010;6.898;2022-07-25T12:22:30;8.97;;;4.03;;
6300;SDS011;3183;51.010;6.898;2022-07-25T12:24:57;10.83;;;4.57;;
6300;SDS011;3183;51.010;6.898;2022-07-25T12:27:25;4.60;;;3.80;;
6300;SDS011;3183;51.010;6.898;2022-07-25T12:29:53;7.23;;;3.73;;
6300;SDS011;3183;51.010;6.898;2022-07-25T12:32:20;10.73;;;3.30;;
6300;SDS011;3183;51.010;6.898;2022-07-25T12:34:47;6.67;;;3.50;;
6300;SDS011;3183;51.010;6.898;2022-07-25T12:37:15;3.60;;;2.73;;
6300;SDS011;3183;51.010;6.898;2022-07-25T12:39:42;5.57;;;3.07;;
6300;SDS011;3183;51.010;6.898;2022-07-25T12:42:09;7.03;;;2.87;;
6300;SDS011;3183;51.010;6.898;2022-07-25T12:44:36;7.53;;;3.27;;
6300;SDS011;3183;51.010;6.898;2022-07-25T12:47:05;11.77;;;3.33;;
6300;SDS011;3183;51.010;6.898;2022-07-25T12:49:32;6.07;;;3.30;;
6300;SDS011;3183;51.010;6.898;2022-07-25T12:51:59;14.00;;;3.83;;
6300;SDS011;3183;51.010;6.898;2022-07-25T12:54:26;6.50;;;3.33;;
6300;SDS011;3183;51.010;6.898;2022-07-25T12:56:54;5.10;;;2.97;;
6300;SDS011;3183;51.010;6.898;2022-07-25T12:59:21;4.30;;;3.37;;
6300;SDS011;3183;51.010;6.898;2022-07-25T13:01:48;5.70;;;3.37;;
6300;SDS011;3183;51.010;6.898;2022-07-25T13:04:17;10.83;;;3.30;;
6300;SDS011;3183;51.010;6.898;2022-07-25T13:06:44;6.20;;;3.10;;
6300;SDS011;3183;51.010;6.898;2022-07-25T13:09:11;5.60;;;2.80;;
6300;SDS011;3183;51.010;6.898;2022-07-25T13:11:38;14.40;;;3.27;;
6300;SDS011;3183;51.010;6.898;2022-07-25T13:14:06;6.67;;;2.70;;
6300;SDS011;3183;51.010;6.898;2022-07-25T13:16:33;3.10;;;2.70;;
6300;SDS011;3183;51.010;6.898;2022-07-25T13:19:01;6.00;;;2.93;;
6300;SDS011;3183;51.010;6.898;2022-07-25T13:21:30;4.73;;;2.70;;
6300;SDS011;3183;51.010;6.898;2022-07-25T13:23:58;4.80;;;3.17;;
6300;SDS011;3183;51.010;6.898;2022-07-25T13:26:25;5.53;;;2.47;;
6300;SDS011;3183;51.010;6.898;2022-07-25T13:28:52;5.90;;;2.83;;
6300;SDS011;3183;51.010;6.898;2022-07-25T13:31:19;5.30;;;2.93;;
6300;SDS011;3183;51.010;6.898;2022-07-25T13:33:47;7.33;;;3.10;;
6300;SDS011;3183;51.010;6.898;2022-07-25T13:36:15;6.03;;;2.70;;
6300;SDS011;3183;51.010;6.898;2022-07-25T13:38:44;3.00;;;2.20;;
6300;SDS011;3183;51.010;6.898;2022-07-25T13:41:12;9.17;;;2.50;;
6300;SDS011;3183;51.010;6.898;2022-07-25T13:43:39;3.30;;;1.90;;
6300;SDS011;3183;51.010;6.898;2022-07-25T13:46:07;8.77;;;2.80;;
6300;SDS011;3183;51.010;6.898;2022-07-25T13:48:35;3.63;;;2.10;;
6300;SDS011;3183;51.010;6.898;2022-07-25T13:51:02;13.03;;;2.60;;
6300;SDS011;3183;51.010;6.898;2022-07-25T13:53:29;11.60;;;2.63;;
6300;SDS011;3183;51.010;6.898;2022-07-25T13:55:58;1.93;;;1.80;;
6300;SDS011;3183;51.010;6.898;2022-07-25T13:58:26;1.97;;;1.80;;
6300;SDS011;3183;51.010;6.898;2022-07-25T14:00:53;3.00;;;2.07;;
6300;SDS011;3183;51.010;6.898;2022-07-25T14:03:20;7.83;;;1.90;;
6300;SDS011;3183;51.010;6.898;2022-07-25T14:05:47;3.20;;;2.00;;
6300;SDS011;3183;51.010;6.898;2022-07-25T14:08:14;4.63;;;2.10;;
6300;SDS011;3183;51.010;6.898;2022-07-25T14:10:42;5.47;;;2.27;;
6300;SDS011;3183;51.010;6.898;2022-07-25T14:13:10;8.23;;;2.00;;
6300;SDS011;3183;51.010;6.898;2022-07-25T14:15:38;5.20;;;2.20;;
6300;SDS011;3183;51.010;6.898;2022-07-25T14:18:05;5.90;;;2.50;;
6300;SDS011;3183;51.010;6.898;2022-07-25T14:20:33;2.87;;;2.50;;
6300;SDS011;3183;51.010;6.898;2022-07-25T14:23:00;6.10;;;2.50;;
6300;SDS011;3183;51.010;6.898;2022-07-25T14:25:28;7.17;;;2.13;;
6300;SDS011;3183;51.010;6.898;2022-07-25T14:27:55;7.07;;;2.47;;
6300;SDS011;3183;51.010;6.898;2022-07-25T14:30:24;3.53;;;2.40;;
6300;SDS011;3183;51.010;6.898;2022-07-25T14:32:51;4.80;;;2.20;;
6300;SDS011;3183;51.010;6.898;2022-07-25T14:35:18;6.17;;;2.20;;
6300;SDS011;3183;51.010;6.898;2022-07-25T14:37:45;3.50;;;2.60;;
6300;SDS011;3183;51.010;6.898;2022-07-25T14:40:12;4.07;;;2.00;;
6300;SDS011;3183;51.010;6.898;2022-07-25T14:42:40;14.97;;;2.53;;
6300;SDS011;3183;51.010;6.898;2022-07-25T14:45:09;10.43;;;2.37;;
6300;SDS011;3183;51.010;6.898;2022-07-25T14:47:38;8.80;;;2.70;;
6300;SDS011;3183;51.010;6.898;2022-07-25T14:50:05;7.10;;;2.90;;
6300;SDS011;3183;51.010;6.898;2022-07-25T14:52:33;7.03;;;2.60;;
6300;SDS011;3183;51.010;6.898;2022-07-25T14:55:00;3.73;;;2.20;;
6300;SDS011;3183;51.010;6.898;2022-07-25T14:57:27;6.20;;;2.23;;
6300;SDS011;3183;51.010;6.898;2022-07-25T14:59:54;7.60;;;2.20;;
6300;SDS011;3183;51.010;6.898;2022-07-25T15:02:21;15.57;;;2.90;;
6300;SDS011;3183;51.010;6.898;2022-07-25T15:04:50;14.60;;;2.70;;
6300;SDS011;3183;51.010;6.898;2022-07-25T15:07:17;11.67;;;2.50;;
6300;SDS011;3183;51.010;6.898;2022-07-25T15:09:44;15.07;;;2.60;;
6300;SDS011;3183;51.010;6.898;2022-07-25T15:12:11;8.03;;;2.23;;
6300;SDS011;3183;51.010;6.898;2022-07-25T15:14:39;29.60;;;4.00;;
6300;SDS011;3183;51.010;6.898;2022-07-25T15:17:07;13.47;;;2.67;;